createdAt,value
2019-02-12T00:00:32.074Z,99705.69
2019-02-12T00:03:00.392Z,99715.48
2019-02-12T00:05:28.664Z,99714.08
2019-02-12T00:07:56.929Z,99719.20
2019-02-12T00:10:25.246Z,99722.53
2019-02-12T00:12:53.596Z,99726.71
2019-02-12T00:15:23.516Z,99726.26
2019-02-12T00:17:51.850Z,99731.44
2019-02-12T00:20:20.105Z,99728.11
2019-02-12T00:22:48.382Z,99726.71
2019-02-12T00:25:16.690Z,99732.66
2019-02-12T00:27:44.963Z,99745.11
2019-02-12T00:30:14.363Z,99750.18
2019-02-12T00:32:42.747Z,99755.73
2019-02-12T00:35:11.012Z,99760.31
2019-02-12T00:37:39.294Z,99759.03
2019-02-12T00:40:09.336Z,99765.87
2019-02-12T00:42:37.615Z,99765.63
2019-02-12T00:45:08.521Z,99765.63
2019-02-12T00:47:36.828Z,99770.06
2019-02-12T00:50:07.946Z,99771.17
2019-02-12T00:52:36.676Z,99764.06
2019-02-12T00:55:07.342Z,99771.87
2019-02-12T00:57:35.621Z,99779.04
2019-02-12T01:00:09.412Z,99776.11
2019-02-12T01:02:37.721Z,99790.32
2019-02-12T01:05:06.003Z,99790.86
2019-02-12T01:07:34.278Z,99790.86
2019-02-12T01:10:02.592Z,99799.48
2019-02-12T01:12:30.865Z,99803.39
2019-02-12T01:15:00.192Z,99795.05
2019-02-12T01:17:28.536Z,99792.44
2019-02-12T01:19:56.761Z,99798.95
2019-02-12T01:22:25.097Z,99804.14
2019-02-12T01:24:53.427Z,99798.19
2019-02-12T01:27:21.695Z,99813.56
2019-02-12T01:29:50.045Z,99814.33
2019-02-12T01:32:21.625Z,99812.81
2019-02-12T01:34:49.883Z,99814.44
2019-02-12T01:37:18.159Z,99810.77
2019-02-12T01:39:46.469Z,99810.77
2019-02-12T01:42:14.803Z,99813.73
2019-02-12T01:44:43.104Z,99818.69
2019-02-12T01:47:11.413Z,99819.63
2019-02-12T01:49:39.774Z,99826.65
2019-02-12T01:52:08.054Z,99822.30
2019-02-12T01:54:41.308Z,99829.70
2019-02-12T01:57:09.587Z,99832.87
2019-02-12T01:59:37.863Z,99832.87
2019-02-12T02:02:06.170Z,99828.14
2019-02-12T02:04:34.435Z,99828.14
2019-02-12T02:07:02.714Z,99840.17
2019-02-12T02:09:31.008Z,99848.12
2019-02-12T02:11:59.282Z,99838.66
2019-02-12T02:14:27.545Z,99843.16
2019-02-12T02:16:56.674Z,99849.67
2019-02-12T02:19:24.952Z,99847.67
2019-02-12T02:21:53.227Z,99846.20
2019-02-12T02:24:21.550Z,99846.20
2019-02-12T02:26:49.814Z,99853.25
2019-02-12T02:29:18.095Z,99845.99
2019-02-12T02:31:46.394Z,99856.18
2019-02-12T02:34:14.674Z,99851.41
2019-02-12T02:36:42.942Z,99856.58
2019-02-12T02:39:11.260Z,99859.97
2019-02-12T02:41:39.524Z,99865.09
2019-02-12T02:44:07.799Z,99859.09
2019-02-12T02:46:36.126Z,99859.14
2019-02-12T02:49:04.448Z,99861.49
2019-02-12T02:51:34.359Z,99857.19
2019-02-12T02:54:02.676Z,99863.17
2019-02-12T02:56:30.928Z,99867.84
2019-02-12T02:58:59.199Z,99867.84
2019-02-12T03:01:27.498Z,99863.48
2019-02-12T03:03:55.762Z,99870.23
2019-02-12T03:06:24.025Z,99875.20
2019-02-12T03:08:52.323Z,99878.93
2019-02-12T03:11:20.582Z,99889.13
2019-02-12T03:13:48.851Z,99889.13
2019-02-12T03:16:17.157Z,99880.22
2019-02-12T03:18:45.448Z,99894.59
2019-02-12T03:21:13.733Z,99894.59
2019-02-12T03:23:42.037Z,99887.33
2019-02-12T03:26:10.293Z,99899.56
2019-02-12T03:28:38.574Z,99894.14
2019-02-12T03:31:06.870Z,99894.14
2019-02-12T03:33:35.138Z,99904.34
2019-02-12T03:36:03.415Z,99920.94
2019-02-12T03:38:31.713Z,99920.94
2019-02-12T03:40:59.994Z,99911.41
2019-02-12T03:43:28.265Z,99913.19
2019-02-12T03:45:56.565Z,99924.72
2019-02-12T03:48:24.921Z,99930.30
2019-02-12T03:50:53.184Z,99922.83
2019-02-12T03:53:22.497Z,99920.98
2019-02-12T03:55:50.779Z,99920.98
2019-02-12T03:58:19.043Z,99933.74
2019-02-12T04:00:47.339Z,99932.86
2019-02-12T04:03:15.608Z,99932.86
2019-02-12T04:05:43.905Z,99935.53
2019-02-12T04:08:12.203Z,99938.67
2019-02-12T04:10:40.478Z,99945.38
2019-02-12T04:13:08.746Z,99947.16
2019-02-12T04:15:37.143Z,99947.16
2019-02-12T04:18:05.438Z,99939.53
2019-02-12T04:20:34.705Z,99939.53
2019-02-12T04:23:03.011Z,99947.59
2019-02-12T04:25:31.276Z,99947.59
2019-02-12T04:27:59.544Z,99965.78
2019-02-12T04:30:27.936Z,99965.78
2019-02-12T04:32:56.185Z,99964.91
2019-02-12T04:35:24.433Z,99959.33
2019-02-12T04:37:52.743Z,99951.75
2019-02-12T04:40:21.005Z,99955.53
2019-02-12T04:42:49.269Z,99970.08
2019-02-12T04:45:17.571Z,99970.08
2019-02-12T04:47:45.838Z,99973.52
2019-02-12T04:50:15.236Z,99968.39
2019-02-12T04:52:43.525Z,99977.26
2019-02-12T04:55:12.254Z,99990.42
2019-02-12T04:57:40.516Z,99992.25
2019-02-12T05:00:11.940Z,99995.48
2019-02-12T05:02:40.277Z,99995.48
2019-02-12T05:05:10.315Z,99995.59
2019-02-12T05:07:38.587Z,99997.23
2019-02-12T05:10:21.962Z,100004.56
2019-02-12T05:12:50.271Z,100004.56
2019-02-12T05:15:18.537Z,100022.09
2019-02-12T05:17:46.802Z,100022.09
2019-02-12T05:20:15.412Z,100025.70
2019-02-12T05:22:44.030Z,100026.17
2019-02-12T05:25:12.470Z,100026.17
2019-02-12T05:27:40.882Z,100039.39
2019-02-12T05:30:13.683Z,100036.00
2019-02-12T05:32:41.943Z,100042.55
2019-02-12T05:35:10.242Z,100040.19
2019-02-12T05:37:38.520Z,100042.75
2019-02-12T05:40:09.358Z,100048.94
2019-02-12T05:42:37.645Z,100051.95
2019-02-12T05:45:11.206Z,100050.72
2019-02-12T05:47:39.537Z,100065.48
2019-02-12T05:50:16.761Z,100070.70
2019-02-12T05:52:54.028Z,100070.70
2019-02-12T05:55:15.040Z,100085.48
2019-02-12T05:57:43.427Z,100085.48
2019-02-12T06:00:20.857Z,100102.45
2019-02-12T06:02:49.166Z,100116.16
2019-02-12T06:05:25.875Z,100120.91
2019-02-12T06:07:54.184Z,100120.91
2019-02-12T06:10:22.669Z,100117.12
2019-02-12T06:12:50.937Z,100126.86
2019-02-12T06:15:19.251Z,100121.00
2019-02-12T06:17:47.519Z,100121.00
2019-02-12T06:20:15.789Z,100130.75
2019-02-12T06:22:44.125Z,100136.73
2019-02-12T06:25:12.526Z,100135.17
2019-02-12T06:27:40.752Z,100135.17
2019-02-12T06:30:10.515Z,100134.44
2019-02-12T06:32:38.794Z,100145.86
2019-02-12T06:35:09.692Z,100145.86
2019-02-12T06:37:41.398Z,100165.80
2019-02-12T06:40:11.124Z,100173.48
2019-02-12T06:42:39.408Z,100170.88
2019-02-12T06:45:10.355Z,100170.88
2019-02-12T06:47:38.623Z,100146.06
2019-02-12T06:50:09.938Z,100171.75
2019-02-12T06:52:38.234Z,100188.30
2019-02-12T06:55:08.350Z,100188.30
2019-02-12T06:57:36.949Z,100165.44
2019-02-12T07:00:11.146Z,100191.91
2019-02-12T07:03:16.880Z,100188.02
2019-02-12T07:05:51.422Z,100188.02
2019-02-12T07:08:39.372Z,100212.20
2019-02-12T07:11:16.647Z,100210.47
2019-02-12T07:13:59.945Z,100212.50
2019-02-12T07:16:49.210Z,100212.50
2019-02-12T07:19:20.732Z,100216.47
2019-02-12T07:22:04.039Z,100220.63
2019-02-12T07:24:44.961Z,100238.42
2019-02-12T07:27:22.651Z,100240.07
2019-02-12T07:29:54.202Z,100246.15
2019-02-12T07:32:28.244Z,100249.86
2019-02-12T07:35:22.855Z,100249.77
2019-02-12T07:37:57.174Z,100249.77
2019-02-12T07:40:29.302Z,100251.01
2019-02-12T07:43:06.584Z,100251.01
2019-02-12T07:45:38.120Z,100258.73
2019-02-12T07:48:24.465Z,100263.32
2019-02-12T07:51:24.730Z,100263.64
2019-02-12T07:54:08.236Z,100277.73
2019-02-12T07:56:48.753Z,100264.92
2019-02-12T07:59:44.475Z,100276.27
2019-02-12T08:02:33.944Z,100286.06
2019-02-12T08:05:20.728Z,100286.02
2019-02-12T08:08:14.941Z,100275.14
2019-02-12T08:11:21.406Z,100275.14
2019-02-12T08:13:52.965Z,100283.61
2019-02-12T08:16:27.205Z,100291.61
2019-02-12T08:19:01.813Z,100294.50
2019-02-12T08:21:39.066Z,100295.47
2019-02-12T08:24:28.805Z,100305.95
2019-02-12T08:27:00.381Z,100305.95
2019-02-12T08:29:41.369Z,100301.92
2019-02-12T08:32:26.217Z,100303.25
2019-02-12T08:35:14.112Z,100318.59
2019-02-12T08:37:54.461Z,100319.58
2019-02-12T08:40:28.782Z,100331.89
2019-02-12T08:43:12.024Z,100323.06
2019-02-12T08:46:03.293Z,100323.06
2019-02-12T08:48:43.814Z,100321.96
2019-02-12T08:51:24.162Z,100328.02
2019-02-12T08:54:01.338Z,100328.84
2019-02-12T08:56:44.670Z,100311.44
2019-02-12T08:59:22.280Z,100327.23
2019-02-12T09:02:05.722Z,100328.55
2019-02-12T09:04:54.671Z,100334.14
2019-02-12T09:07:34.829Z,100332.81
2019-02-12T09:10:20.477Z,100320.63
2019-02-12T09:13:00.694Z,100344.84
2019-02-12T09:15:50.300Z,100352.34
2019-02-12T09:18:27.368Z,100349.92
2019-02-12T09:21:28.814Z,100347.53
2019-02-12T09:24:22.883Z,100347.55
2019-02-12T09:27:09.419Z,100344.08
2019-02-12T09:29:55.620Z,100357.53
2019-02-12T09:32:47.630Z,100365.58
2019-02-12T09:35:24.952Z,100364.81
2019-02-12T09:37:59.285Z,100372.55
2019-02-12T09:40:39.512Z,100376.80
2019-02-12T09:43:39.676Z,100354.04
2019-02-12T09:46:13.950Z,100372.77
2019-02-12T09:49:02.409Z,100366.77
2019-02-12T09:51:56.833Z,100357.84
2019-02-12T09:54:30.056Z,100373.13
2019-02-12T09:57:21.342Z,100381.01
2019-02-12T10:00:16.188Z,100376.44
2019-02-12T10:03:10.440Z,100380.11
2019-02-12T10:05:44.810Z,100388.25
2019-02-12T10:08:39.450Z,100370.53
2019-02-12T10:11:16.773Z,100384.59
2019-02-12T10:13:48.548Z,100379.75
2019-02-12T10:16:31.822Z,100381.17
2019-02-12T10:19:08.022Z,100371.09
2019-02-12T10:21:51.391Z,100355.56
2019-02-12T10:24:36.999Z,100381.27
2019-02-12T10:27:13.950Z,100370.93
2019-02-12T10:30:00.429Z,100352.09
2019-02-12T10:32:28.026Z,100369.86
2019-02-12T10:34:57.128Z,100370.50
2019-02-12T10:37:25.579Z,100362.66
2019-02-12T10:39:53.877Z,100347.72
2019-02-12T10:42:23.785Z,100370.88
2019-02-12T10:44:52.055Z,100378.73
2019-02-12T10:47:25.270Z,100372.66
2019-02-12T10:49:55.170Z,100359.22
2019-02-12T10:52:25.081Z,100369.74
2019-02-12T10:54:56.635Z,100343.66
2019-02-12T10:57:24.916Z,100369.06
2019-02-12T10:59:54.823Z,100379.61
2019-02-12T11:02:24.198Z,100362.91
2019-02-12T11:04:54.124Z,100360.30
2019-02-12T11:07:25.010Z,100359.27
2019-02-12T11:09:54.194Z,100378.37
2019-02-12T11:12:22.466Z,100369.99
2019-02-12T11:14:50.738Z,100373.64
2019-02-12T11:17:24.682Z,100371.17
2019-02-12T11:19:56.225Z,100361.38
2019-02-12T11:22:26.139Z,100350.09
2019-02-12T11:24:56.109Z,100381.91
2019-02-12T11:27:24.591Z,100377.28
2019-02-12T11:29:52.880Z,100386.27
2019-02-12T11:32:21.188Z,100384.02
2019-02-12T11:34:53.748Z,100392.59
2019-02-12T11:37:22.026Z,100392.59
2019-02-12T11:39:51.999Z,100383.30
2019-02-12T11:42:25.012Z,100382.08
2019-02-12T11:44:54.316Z,100399.42
2019-02-12T11:47:24.346Z,100399.42
2019-02-12T11:49:53.740Z,100388.34
2019-02-12T11:52:22.012Z,100398.56
2019-02-12T11:54:51.955Z,100391.42
2019-02-12T11:57:23.040Z,100401.03
2019-02-12T11:59:52.384Z,100393.58
2019-02-12T12:02:22.570Z,100402.72
2019-02-12T12:04:52.470Z,100397.33
2019-02-12T12:07:20.736Z,100404.05
2019-02-12T12:09:49.038Z,100390.75
2019-02-12T12:12:19.806Z,100406.58
2019-02-12T12:14:48.502Z,100388.64
2019-02-12T12:17:18.708Z,100411.51
2019-02-12T12:19:47.675Z,100406.87
2019-02-12T12:22:21.056Z,100418.03
2019-02-12T12:24:51.541Z,100412.37
2019-02-12T12:27:19.366Z,100419.27
2019-02-12T12:29:47.640Z,100405.80
2019-02-12T12:32:15.948Z,100416.90
2019-02-12T12:34:45.866Z,100424.17
2019-02-12T12:37:15.534Z,100430.92
2019-02-12T12:39:48.779Z,100437.75
2019-02-12T12:42:17.073Z,100429.94
2019-02-12T12:44:48.602Z,100430.59
2019-02-12T12:47:17.581Z,100441.55
2019-02-12T12:49:47.555Z,100447.47
2019-02-12T12:52:19.147Z,100413.75
2019-02-12T12:54:49.038Z,100445.91
2019-02-12T12:57:18.999Z,100453.47
2019-02-12T12:59:49.486Z,100465.17
2019-02-12T13:02:18.832Z,100456.95
2019-02-12T13:04:48.734Z,100465.95
2019-02-12T13:07:17.025Z,100465.95
2019-02-12T13:09:46.987Z,100480.66
2019-02-12T13:12:17.025Z,100477.45
2019-02-12T13:14:49.619Z,100474.84
2019-02-12T13:17:17.932Z,100486.85
2019-02-12T13:19:47.844Z,100496.72
2019-02-12T13:22:17.742Z,100499.19
2019-02-12T13:24:52.459Z,100480.07
2019-02-12T13:27:20.813Z,100498.00
2019-02-12T13:29:50.712Z,100507.40
2019-02-12T13:32:20.891Z,100515.48
2019-02-12T13:34:50.790Z,100500.86
2019-02-12T13:37:19.135Z,100522.59
2019-02-12T13:39:47.427Z,100522.59
2019-02-12T13:42:16.626Z,100528.23
2019-02-12T13:44:44.881Z,100529.02
2019-02-12T13:47:13.200Z,100529.16
2019-02-12T13:49:41.481Z,100529.98
2019-02-12T13:52:09.925Z,100526.95
2019-02-12T13:54:38.234Z,100533.80
2019-02-12T13:57:06.602Z,100533.37
2019-02-12T13:59:34.882Z,100542.73
2019-02-12T14:02:03.462Z,100531.67
2019-02-12T14:04:33.509Z,100529.61
2019-02-12T14:07:01.852Z,100537.64
2019-02-12T14:09:33.415Z,100549.97
2019-02-12T14:12:06.574Z,100545.61
2019-02-12T14:14:35.790Z,100543.05
2019-02-12T14:17:04.166Z,100541.80
2019-02-12T14:19:34.068Z,100543.14
2019-02-12T14:22:02.358Z,100556.30
2019-02-12T14:24:36.364Z,100551.16
2019-02-12T14:27:04.653Z,100552.13
2019-02-12T14:29:34.558Z,100523.09
2019-02-12T14:32:02.923Z,100568.45
2019-02-12T14:34:31.192Z,100560.38
2019-02-12T14:36:59.462Z,100565.56
2019-02-12T14:39:31.718Z,100572.72
2019-02-12T14:41:59.989Z,100567.85
2019-02-12T14:44:28.265Z,100571.30
2019-02-12T14:46:56.585Z,100582.95
2019-02-12T14:49:24.924Z,100583.77
2019-02-12T14:51:53.198Z,100581.80
2019-02-12T14:54:25.364Z,100578.36
2019-02-12T14:56:55.273Z,100590.78
2019-02-12T14:59:27.519Z,100580.02
2019-02-12T15:01:59.416Z,100590.34
2019-02-12T15:04:30.592Z,100593.27
2019-02-12T15:07:00.542Z,100589.46
2019-02-12T15:09:30.445Z,100590.65
2019-02-12T15:12:00.355Z,100601.28
2019-02-12T15:14:28.925Z,100609.33
2019-02-12T15:16:59.695Z,100604.14
2019-02-12T15:19:27.981Z,100606.23
2019-02-12T15:21:58.311Z,100612.99
2019-02-12T15:24:30.343Z,100616.80
2019-02-12T15:27:00.259Z,100618.40
2019-02-12T15:29:28.592Z,100612.11
2019-02-12T15:31:58.528Z,100621.02
2019-02-12T15:34:28.429Z,100623.67
2019-02-12T15:37:01.071Z,100606.57
2019-02-12T15:39:30.962Z,100636.06
2019-02-12T15:42:01.729Z,100634.83
2019-02-12T15:44:30.701Z,100642.11
2019-02-12T15:47:03.590Z,100648.84
2019-02-12T15:49:35.180Z,100654.47
2019-02-12T15:52:06.721Z,100654.47
2019-02-12T15:54:38.243Z,100655.92
2019-02-12T15:57:08.190Z,100673.89
2019-02-12T15:59:38.104Z,100673.89
2019-02-12T16:02:06.400Z,100667.73
2019-02-12T16:04:39.021Z,100677.66
2019-02-12T16:07:09.000Z,100674.27
2019-02-12T16:09:37.268Z,100684.20
2019-02-12T16:12:11.032Z,100682.58
2019-02-12T16:14:40.114Z,100691.97
2019-02-12T16:17:12.372Z,100698.92
2019-02-12T16:19:41.527Z,100697.22
2019-02-12T16:22:11.426Z,100696.85
2019-02-12T16:24:42.394Z,100717.48
2019-02-12T16:27:13.985Z,100731.30
2019-02-12T16:29:44.687Z,100720.70
2019-02-12T16:32:12.958Z,100730.61
2019-02-12T16:34:41.937Z,100740.19
2019-02-12T16:37:10.220Z,100738.56
2019-02-12T16:39:41.838Z,100749.31
2019-02-12T16:42:11.774Z,100740.86
2019-02-12T16:44:39.861Z,100752.09
2019-02-12T16:47:07.989Z,100749.63
2019-02-12T16:49:37.047Z,100758.25
2019-02-12T16:52:08.601Z,100760.92
2019-02-12T16:54:40.695Z,100759.39
2019-02-12T16:57:10.668Z,100773.59
2019-02-12T16:59:38.930Z,100770.64
2019-02-12T17:02:07.227Z,100779.73
2019-02-12T17:04:35.646Z,100781.19
2019-02-12T17:07:04.015Z,100794.53
2019-02-12T17:09:32.284Z,100795.91
2019-02-12T17:12:00.853Z,100801.57
2019-02-12T17:14:29.233Z,100806.75
2019-02-12T17:17:00.194Z,100819.56
2019-02-12T17:19:28.504Z,100817.09
2019-02-12T17:21:59.320Z,100820.98
2019-02-12T17:24:27.589Z,100815.45
2019-02-12T17:26:58.258Z,100827.39
2019-02-12T17:29:26.532Z,100826.20
2019-02-12T17:31:54.809Z,100836.83
2019-02-12T17:34:23.115Z,100844.93
2019-02-12T17:36:51.378Z,100847.94
2019-02-12T17:39:19.661Z,100843.17
2019-02-12T17:41:50.117Z,100857.65
2019-02-12T17:44:20.015Z,100847.52
2019-02-12T17:46:49.938Z,100857.70
2019-02-12T17:49:19.011Z,100865.00
2019-02-12T17:51:48.993Z,100870.54
2019-02-12T17:54:17.370Z,100870.64
2019-02-12T17:56:46.554Z,100870.64
2019-02-12T17:59:16.537Z,100883.12
2019-02-12T18:01:46.706Z,100880.64
2019-02-12T18:04:15.048Z,100882.73
2019-02-12T18:06:44.094Z,100892.97
2019-02-12T18:09:13.253Z,100899.39
2019-02-12T18:11:44.814Z,100912.12
2019-02-12T18:14:13.079Z,100914.26
2019-02-12T18:16:41.355Z,100925.39
2019-02-12T18:19:09.652Z,100958.23
2019-02-12T18:21:38.086Z,100951.82
2019-02-12T18:24:07.447Z,100949.91
2019-02-12T18:26:35.949Z,100952.14
2019-02-12T18:29:04.229Z,100952.14
2019-02-12T18:31:32.495Z,100958.05
2019-02-12T18:34:00.822Z,100961.52
2019-02-12T18:36:29.107Z,100982.31
2019-02-12T18:38:57.523Z,101001.22
2019-02-12T18:41:25.832Z,100983.14
2019-02-12T18:43:54.283Z,100992.56
2019-02-12T18:46:22.567Z,100992.56
2019-02-12T18:48:50.890Z,100995.56
2019-02-12T18:51:19.177Z,100991.38
2019-02-12T18:53:47.469Z,101000.64
2019-02-12T18:56:16.014Z,101003.47
2019-02-12T18:58:44.367Z,101003.47
2019-02-12T19:01:12.763Z,101006.47
2019-02-12T19:03:41.278Z,101014.11
2019-02-12T19:06:09.558Z,101017.08
2019-02-12T19:08:37.837Z,101017.08
2019-02-12T19:11:06.320Z,101023.40
2019-02-12T19:13:34.778Z,101031.03
2019-02-12T19:16:03.057Z,101027.20
2019-02-12T19:18:31.363Z,101029.27
2019-02-12T19:20:59.774Z,101029.27
2019-02-12T19:23:28.055Z,101035.63
2019-02-12T19:25:56.407Z,101035.63
2019-02-12T19:28:24.769Z,101038.24
2019-02-12T19:30:53.035Z,101038.24
2019-02-12T19:33:21.383Z,101051.83
2019-02-12T19:35:49.669Z,101052.73
2019-02-12T19:38:17.971Z,101052.73
2019-02-12T19:40:46.293Z,101061.26
2019-02-12T19:43:15.544Z,101068.55
2019-02-12T19:45:44.027Z,101072.39
2019-02-12T19:48:12.344Z,101074.11
2019-02-12T19:50:40.638Z,101074.50
2019-02-12T19:53:08.929Z,101086.90
2019-02-12T19:55:37.251Z,101090.32
2019-02-12T19:58:05.569Z,101090.32
2019-02-12T20:00:33.805Z,101086.17
2019-02-12T20:03:05.656Z,101104.51
2019-02-12T20:05:34.001Z,101104.51
2019-02-12T20:08:02.359Z,101108.40
2019-02-12T20:10:30.789Z,101106.30
2019-02-12T20:12:59.139Z,101106.30
2019-02-12T20:15:27.494Z,101120.38
2019-02-12T20:17:55.984Z,101115.73
2019-02-12T20:20:24.444Z,101115.73
2019-02-12T20:22:52.868Z,101132.31
2019-02-12T20:25:21.180Z,101132.31
2019-02-12T20:27:49.460Z,101139.18
2019-02-12T20:30:18.891Z,101137.08
2019-02-12T20:32:47.200Z,101137.08
2019-02-12T20:35:20.240Z,101142.20
2019-02-12T20:37:48.523Z,101146.06
2019-02-12T20:40:16.973Z,101146.06
2019-02-12T20:42:45.281Z,101154.59
2019-02-12T20:45:16.051Z,101148.25
2019-02-12T20:47:44.473Z,101148.25
2019-02-12T20:50:14.590Z,101155.53
2019-02-12T20:52:43.126Z,101152.59
2019-02-12T20:55:12.604Z,101164.08
2019-02-12T20:57:40.889Z,101153.05
2019-02-12T21:00:20.890Z,101153.05
2019-02-12T21:02:49.185Z,101152.22
2019-02-12T21:05:17.557Z,101152.61
2019-02-12T21:07:46.008Z,101152.19
2019-02-12T21:10:17.192Z,101156.82
2019-02-12T21:12:45.473Z,101161.10
2019-02-12T21:15:19.792Z,101164.95
2019-02-12T21:17:50.554Z,101168.36
2019-02-12T21:20:18.910Z,101168.36
2019-02-12T21:22:47.255Z,101184.08
2019-02-12T21:25:15.615Z,101184.08
2019-02-12T21:27:43.925Z,101165.36
2019-02-12T21:30:18.129Z,101179.81
2019-02-12T21:32:46.474Z,101177.72
2019-02-12T21:35:14.781Z,101194.34
2019-02-12T21:37:43.114Z,101186.69
2019-02-12T21:40:14.023Z,101186.69
2019-02-12T21:42:42.352Z,101194.38
2019-02-12T21:45:12.813Z,101193.97
2019-02-12T21:47:41.193Z,101207.64
2019-02-12T21:50:31.368Z,101207.64
2019-02-12T21:52:59.617Z,101202.13
2019-02-12T21:55:27.976Z,101220.45
2019-02-12T21:57:56.476Z,101220.45
2019-02-12T22:00:24.761Z,101220.88
2019-02-12T22:02:53.074Z,101220.91
2019-02-12T22:05:21.387Z,101232.37
2019-02-12T22:07:49.762Z,101228.99
2019-02-12T22:10:21.043Z,101228.99
2019-02-12T22:12:49.463Z,101241.34
2019-02-12T22:15:17.754Z,101241.36
2019-02-12T22:17:47.700Z,101243.08
2019-02-12T22:20:20.602Z,101243.08
2019-02-12T22:22:48.910Z,101249.47
2019-02-12T22:25:17.237Z,101249.47
2019-02-12T22:27:45.591Z,101252.88
2019-02-12T22:30:21.836Z,101261.41
2019-02-12T22:32:51.794Z,101254.16
2019-02-12T22:35:20.183Z,101265.23
2019-02-12T22:37:48.463Z,101267.36
2019-02-12T22:40:17.846Z,101265.24
2019-02-12T22:42:46.190Z,101278.42
2019-02-12T22:45:16.307Z,101278.42
2019-02-12T22:47:44.641Z,101284.39
2019-02-12T22:50:13.567Z,101278.42
2019-02-12T22:52:41.923Z,101286.08
2019-02-12T22:55:10.872Z,101286.08
2019-02-12T22:57:39.141Z,101289.91
2019-02-12T23:00:26.972Z,101292.06
2019-02-12T23:02:55.395Z,101301.39
2019-02-12T23:05:23.669Z,101301.39
2019-02-12T23:07:51.993Z,101299.72
2019-02-12T23:10:20.327Z,101300.12
2019-02-12T23:12:52.548Z,101298.84
2019-02-12T23:15:22.383Z,101294.19
2019-02-12T23:17:52.282Z,101300.56
2019-02-12T23:20:26.610Z,101300.56
2019-02-12T23:22:56.797Z,101299.73
2019-02-12T23:25:26.705Z,101299.73
2019-02-12T23:27:57.653Z,101308.66
2019-02-12T23:30:25.210Z,101310.77
2019-02-12T23:32:55.128Z,101315.03
2019-02-12T23:35:25.144Z,101315.03
2019-02-12T23:37:53.447Z,101306.52
2019-02-12T23:40:21.812Z,101324.37
2019-02-12T23:42:50.130Z,101324.37
2019-02-12T23:45:18.434Z,101320.55
2019-02-12T23:47:46.730Z,101332.45
2019-02-12T23:50:15.010Z,101329.06
2019-02-12T23:52:43.336Z,101332.89
2019-02-12T23:55:11.628Z,101331.18
2019-02-12T23:57:39.986Z,101332.45
